WZZ3271 EPKT-EPGD
Flight info
| Callsign | WZZ3271 |
|---|---|
| Flight time | N/A |
| Altitude | 36000 |
| Route | NAVUR N744 OVBOR N133 GRUDA Z95 OSLOG |
| Aircraft | A20N/M-SDE2E3FGHIRWXY/LB1 |
Departure
| Time | 2026-05-06 14:52 |
|---|---|
| Airport | Katowice Wojciech Korfanty International Airport (EPKT) |
Arrival
| Time | N/A |
|---|---|
| Airport | Gdańsk Lech Wałęsa Airport (EPGD) |
| Time | Latitude | Longitude | Altitude | Speed | Heading |
|---|---|---|---|---|---|
| 2026-05-06 14:01 | 50.47152 | 19.07973 | 994 ft | 0 kts | 172° |
| 2026-05-06 14:43 | 50.47153 | 19.07973 | 994 ft | 2 kts | 172° |
| 2026-05-06 14:43 | 50.47170 | 19.07969 | 995 ft | 2 kts | 172° |
| 2026-05-06 14:43 | 50.47185 | 19.07957 | 995 ft | 2 kts | 140° |
| 2026-05-06 14:43 | 50.47199 | 19.07940 | 994 ft | 2 kts | 140° |
| 2026-05-06 14:44 | 50.47212 | 19.07923 | 994 ft | 2 kts | 140° |
| 2026-05-06 14:44 | 50.47223 | 19.07903 | 993 ft | 2 kts | 91° |
| 2026-05-06 14:44 | 50.47223 | 19.07901 | 993 ft | 0 kts | 84° |
| 2026-05-06 14:47 | 50.47224 | 19.07917 | 993 ft | 7 kts | 84° |
| 2026-05-06 14:47 | 50.47233 | 19.08084 | 1000 ft | 19 kts | 84° |
| 2026-05-06 14:48 | 50.47231 | 19.08191 | 1001 ft | 2 kts | 115° |
| 2026-05-06 14:48 | 50.47209 | 19.08398 | 999 ft | 42 kts | 87° |
| 2026-05-06 14:49 | 50.47216 | 19.08467 | 998 ft | 41 kts | 75° |
| 2026-05-06 14:49 | 50.47238 | 19.08843 | 1001 ft | 33 kts | 90° |
| 2026-05-06 14:49 | 50.47234 | 19.09192 | 1004 ft | 31 kts | 90° |
| 2026-05-06 14:49 | 50.47232 | 19.09511 | 1006 ft | 28 kts | 91° |
| 2026-05-06 14:50 | 50.47229 | 19.09811 | 1009 ft | 27 kts | 90° |
| 2026-05-06 14:50 | 50.47265 | 19.10080 | 1011 ft | 24 kts | 58° |
| 2026-05-06 14:50 | 50.47364 | 19.10282 | 1013 ft | 23 kts | 51° |
| 2026-05-06 14:50 | 50.47469 | 19.10443 | 1014 ft | 20 kts | 15° |
| 2026-05-06 14:51 | 50.47591 | 19.10391 | 1012 ft | 17 kts | 300° |
| 2026-05-06 14:51 | 50.47600 | 19.10132 | 1010 ft | 47 kts | 269° |
| 2026-05-06 14:51 | 50.47601 | 19.09264 | 1007 ft | 112 kts | 270° |
| 2026-05-06 14:51 | 50.47602 | 19.07726 | 1100 ft | 154 kts | 271° |
| 2026-05-06 14:52 | 50.47617 | 19.06186 | 1947 ft | 133 kts | 270° |
| 2026-05-06 14:52 | 50.47620 | 19.04672 | 2470 ft | 152 kts | 270° |
| 2026-05-06 14:52 | 50.47619 | 19.02922 | 3003 ft | 173 kts | 270° |
| 2026-05-06 14:52 | 50.47619 | 19.00863 | 3348 ft | 203 kts | 270° |
| 2026-05-06 14:53 | 50.47658 | 18.98533 | 3679 ft | 233 kts | 277° |
| 2026-05-06 14:53 | 50.48187 | 18.96091 | 4475 ft | 242 kts | 303° |
| 2026-05-06 14:53 | 50.49425 | 18.94330 | 5439 ft | 245 kts | 334° |
| 2026-05-06 14:53 | 50.51061 | 18.93734 | 6350 ft | 248 kts | 356° |
| 2026-05-06 14:54 | 50.52785 | 18.93692 | 7233 ft | 252 kts | 0° |
| 2026-05-06 14:54 | 50.54543 | 18.93745 | 8072 ft | 255 kts | 1° |